createdAt,value
2018-05-15T00:01:00.064Z,13.32
2018-05-15T00:02:00.309Z,13.29
2018-05-15T00:03:00.551Z,13.25
2018-05-15T00:04:00.792Z,13.20
2018-05-15T00:05:01.042Z,13.25
2018-05-15T00:06:01.276Z,13.17
2018-05-15T00:07:01.524Z,13.12
2018-05-15T00:08:01.764Z,13.10
2018-05-15T00:09:02.003Z,13.04
2018-05-15T00:10:02.246Z,13.01
2018-05-15T00:11:02.487Z,13.05
2018-05-15T00:12:02.728Z,13.14
2018-05-15T00:13:02.972Z,13.15
2018-05-15T00:14:03.210Z,13.22
2018-05-15T00:15:03.456Z,13.14
2018-05-15T00:16:03.689Z,13.17
2018-05-15T00:17:03.939Z,13.20
2018-05-15T00:18:04.181Z,13.22
2018-05-15T00:19:04.424Z,13.30
2018-05-15T00:20:04.668Z,13.29
2018-05-15T00:21:04.908Z,13.29
2018-05-15T00:22:05.148Z,13.23
2018-05-15T00:23:05.392Z,13.30
2018-05-15T00:24:05.634Z,13.29
2018-05-15T00:25:05.873Z,13.26
2018-05-15T00:26:06.116Z,13.32
2018-05-15T00:27:06.367Z,13.32
2018-05-15T00:28:06.601Z,13.42
2018-05-15T00:29:06.844Z,13.45
2018-05-15T00:30:07.086Z,13.42
2018-05-15T00:31:07.330Z,13.42
2018-05-15T00:32:07.570Z,13.46
2018-05-15T00:33:07.811Z,13.45
2018-05-15T00:34:08.056Z,13.39
2018-05-15T00:35:08.296Z,13.36
2018-05-15T00:36:08.537Z,13.30
2018-05-15T00:37:08.780Z,13.25
2018-05-15T00:38:09.021Z,13.11
2018-05-15T00:39:09.262Z,13.11
2018-05-15T00:40:09.503Z,13.08
2018-05-15T00:41:09.745Z,13.11
2018-05-15T00:42:09.985Z,13.03
2018-05-15T00:43:10.227Z,13.03
2018-05-15T00:44:10.561Z,13.00
2018-05-15T00:45:10.708Z,13.04
2018-05-15T00:46:10.950Z,13.00
2018-05-15T00:47:11.201Z,12.93
2018-05-15T00:48:11.432Z,12.97
2018-05-15T00:49:11.674Z,13.05
2018-05-15T00:50:11.920Z,13.10
2018-05-15T00:51:12.157Z,13.19
2018-05-15T00:52:12.400Z,13.23
2018-05-15T00:53:12.645Z,13.32
2018-05-15T00:54:12.887Z,13.30
2018-05-15T00:55:13.125Z,13.29
2018-05-15T00:56:13.368Z,13.29
2018-05-15T00:57:13.614Z,13.33
2018-05-15T00:58:13.852Z,13.25
2018-05-15T00:59:14.096Z,13.33
2018-05-15T01:00:14.338Z,13.25
2018-05-15T01:01:14.579Z,13.25
2018-05-15T01:02:14.820Z,13.14
2018-05-15T01:03:15.062Z,13.08
2018-05-15T01:04:15.304Z,13.05
2018-05-15T01:05:15.554Z,13.03
2018-05-15T01:06:15.789Z,13.01
2018-05-15T01:07:16.033Z,12.97
2018-05-15T01:08:16.273Z,12.96
2018-05-15T01:09:16.517Z,12.92
2018-05-15T01:10:16.758Z,12.93
2018-05-15T01:11:16.997Z,13.01
2018-05-15T01:12:17.240Z,13.05
2018-05-15T01:13:17.485Z,12.93
2018-05-15T01:14:17.723Z,12.96
2018-05-15T01:15:17.965Z,13.15
2018-05-15T01:16:18.207Z,13.14
2018-05-15T01:17:18.463Z,13.12
2018-05-15T01:18:18.689Z,13.11
2018-05-15T01:19:18.929Z,13.05
2018-05-15T01:20:19.174Z,13.01
2018-05-15T01:21:19.413Z,13.04
2018-05-15T01:22:19.657Z,13.05
2018-05-15T01:23:19.899Z,13.04
2018-05-15T01:24:20.139Z,13.03
2018-05-15T01:25:20.381Z,13.01
2018-05-15T01:26:20.623Z,12.96
2018-05-15T01:27:20.863Z,12.93
2018-05-15T01:28:21.105Z,12.93
2018-05-15T01:29:21.347Z,13.03
2018-05-15T01:30:21.590Z,12.97
2018-05-15T01:31:21.832Z,12.92
2018-05-15T01:32:22.075Z,13.01
2018-05-15T01:33:22.322Z,13.08
2018-05-15T01:34:22.561Z,13.07
2018-05-15T01:35:22.801Z,13.12
2018-05-15T01:36:23.042Z,13.05
2018-05-15T01:37:23.284Z,13.10
2018-05-15T01:38:23.526Z,13.00
2018-05-15T01:39:23.766Z,12.93
2018-05-15T01:40:24.009Z,12.97
2018-05-15T01:41:24.250Z,12.87
2018-05-15T01:42:24.492Z,12.85
2018-05-15T01:43:24.736Z,12.71
2018-05-15T01:44:24.977Z,12.71
2018-05-15T01:45:25.219Z,12.54
2018-05-15T01:46:25.538Z,12.60
2018-05-15T01:47:25.701Z,12.53
2018-05-15T01:48:25.942Z,12.50
2018-05-15T01:49:26.182Z,12.46
2018-05-15T01:50:26.425Z,12.34
2018-05-15T01:51:26.667Z,12.37
2018-05-15T01:52:26.909Z,12.34
2018-05-15T01:53:27.152Z,12.29
2018-05-15T01:54:27.395Z,12.34
2018-05-15T01:55:27.636Z,12.31
2018-05-15T01:56:27.878Z,12.28
2018-05-15T01:57:28.123Z,12.29
2018-05-15T01:58:28.359Z,12.13
2018-05-15T01:59:28.602Z,12.14
2018-05-15T02:00:28.844Z,12.07
2018-05-15T02:01:29.086Z,12.01
2018-05-15T02:02:29.324Z,12.07
2018-05-15T02:03:29.568Z,12.01
2018-05-15T02:04:29.807Z,12.12
2018-05-15T02:05:30.052Z,12.12
2018-05-15T02:06:30.296Z,12.17
2018-05-15T02:07:30.535Z,12.38
2018-05-15T02:08:30.779Z,12.41
2018-05-15T02:09:31.021Z,12.47
2018-05-15T02:10:31.258Z,12.49
2018-05-15T02:11:31.501Z,12.52
2018-05-15T02:12:31.745Z,12.57
2018-05-15T02:13:31.987Z,12.60
2018-05-15T02:14:32.230Z,12.53
2018-05-15T02:15:32.471Z,12.59
2018-05-15T02:16:32.713Z,12.56
2018-05-15T02:17:32.954Z,12.52
2018-05-15T02:18:33.196Z,12.49
2018-05-15T02:19:33.441Z,12.49
2018-05-15T02:20:33.690Z,12.47
2018-05-15T02:21:33.922Z,12.35
2018-05-15T02:22:34.164Z,12.42
2018-05-15T02:23:34.403Z,12.39
2018-05-15T02:24:34.644Z,12.41
2018-05-15T02:25:34.885Z,12.37
2018-05-15T02:26:35.126Z,12.47
2018-05-15T02:27:35.367Z,12.38
2018-05-15T02:28:35.608Z,12.41
2018-05-15T02:29:35.846Z,12.34
2018-05-15T02:30:36.159Z,12.31
2018-05-15T02:31:36.327Z,12.32
2018-05-15T02:32:36.568Z,12.27
2018-05-15T02:33:36.807Z,12.23
2018-05-15T02:34:37.045Z,12.19
2018-05-15T02:35:37.286Z,12.24
2018-05-15T02:36:37.527Z,12.17
2018-05-15T02:37:37.768Z,12.19
2018-05-15T02:38:38.011Z,12.16
2018-05-15T02:39:38.249Z,12.20
2018-05-15T02:40:38.490Z,12.16
2018-05-15T02:41:38.729Z,12.17
2018-05-15T02:42:38.969Z,12.16
2018-05-15T02:43:39.211Z,12.21
2018-05-15T02:44:39.451Z,12.37
2018-05-15T02:45:39.696Z,12.41
2018-05-15T02:46:39.937Z,12.49
2018-05-15T02:47:40.177Z,12.46
2018-05-15T02:48:40.421Z,12.52
2018-05-15T02:49:40.658Z,12.53
2018-05-15T02:50:40.902Z,12.54
2018-05-15T02:51:41.141Z,12.50
2018-05-15T02:52:41.382Z,12.50
2018-05-15T02:53:41.627Z,12.59
2018-05-15T02:54:41.870Z,12.49
2018-05-15T02:55:42.111Z,12.50
2018-05-15T02:56:42.345Z,12.46
2018-05-15T02:57:42.585Z,12.49
2018-05-15T02:58:42.826Z,12.53
2018-05-15T02:59:43.068Z,12.54
2018-05-15T03:00:43.308Z,12.59
2018-05-15T03:01:43.551Z,12.60
2018-05-15T03:02:43.793Z,12.56
2018-05-15T03:03:44.039Z,12.60
2018-05-15T03:04:44.275Z,12.64
2018-05-15T03:05:44.512Z,12.57
2018-05-15T03:06:44.756Z,12.53
2018-05-15T03:07:45.004Z,12.50
2018-05-15T03:08:45.241Z,12.47
2018-05-15T03:09:45.483Z,12.42
2018-05-15T03:10:45.722Z,12.54
2018-05-15T03:11:45.980Z,12.50
2018-05-15T03:12:46.203Z,12.54
2018-05-15T03:13:46.445Z,12.50
2018-05-15T03:14:46.686Z,12.53
2018-05-15T03:15:46.928Z,12.53
2018-05-15T03:16:47.169Z,12.60
2018-05-15T03:17:47.410Z,12.59
2018-05-15T03:18:47.652Z,12.64
2018-05-15T03:19:47.893Z,12.54
2018-05-15T03:20:48.132Z,12.60
2018-05-15T03:21:48.373Z,12.64
2018-05-15T03:22:48.614Z,12.59
2018-05-15T03:23:48.860Z,12.60
2018-05-15T03:24:49.095Z,12.59
2018-05-15T03:25:49.335Z,12.71
2018-05-15T03:26:49.575Z,12.72
2018-05-15T03:27:49.817Z,12.72
2018-05-15T03:28:50.059Z,12.72
2018-05-15T03:29:53.163Z,12.64
2018-05-15T03:30:50.641Z,12.65
2018-05-15T03:31:50.882Z,12.67
2018-05-15T03:32:51.122Z,12.74
2018-05-15T03:33:51.364Z,12.74
2018-05-15T03:34:51.601Z,12.70
2018-05-15T03:35:51.841Z,12.71
2018-05-15T03:36:52.081Z,12.71
2018-05-15T03:37:52.322Z,12.59
2018-05-15T03:38:52.562Z,12.54
2018-05-15T03:39:52.802Z,12.46
2018-05-15T03:40:53.042Z,12.57
2018-05-15T03:41:53.284Z,12.50
2018-05-15T03:42:53.524Z,12.45
2018-05-15T03:43:53.764Z,12.54
2018-05-15T03:44:54.009Z,12.60
2018-05-15T03:45:54.248Z,12.62
2018-05-15T03:46:54.489Z,12.52
2018-05-15T03:47:54.728Z,12.46
2018-05-15T03:48:54.968Z,12.49
2018-05-15T03:49:55.210Z,12.52
2018-05-15T03:50:55.450Z,12.59
2018-05-15T03:51:55.692Z,12.53
2018-05-15T03:52:55.932Z,12.56
2018-05-15T03:53:56.175Z,12.56
2018-05-15T03:54:56.413Z,12.59
2018-05-15T03:55:56.655Z,12.54
2018-05-15T03:56:56.898Z,12.53
2018-05-15T03:57:57.135Z,12.59
2018-05-15T03:58:57.376Z,12.56
2018-05-15T03:59:57.617Z,12.56
2018-05-15T04:00:57.855Z,12.56
2018-05-15T04:01:58.098Z,12.57
2018-05-15T04:02:58.340Z,12.62
2018-05-15T04:03:58.584Z,12.64
2018-05-15T04:04:58.824Z,12.57
2018-05-15T04:05:59.067Z,12.64
2018-05-15T04:06:59.307Z,12.67
2018-05-15T04:07:59.547Z,12.71
2018-05-15T04:08:59.791Z,12.65
2018-05-15T04:10:00.033Z,12.71
2018-05-15T04:11:00.363Z,12.78
2018-05-15T04:12:00.514Z,12.75
2018-05-15T04:13:00.757Z,12.75
2018-05-15T04:14:00.997Z,12.89
2018-05-15T04:15:01.243Z,12.83
2018-05-15T04:16:01.479Z,12.74
2018-05-15T04:17:01.721Z,12.89
2018-05-15T04:18:01.971Z,12.93
2018-05-15T04:19:02.202Z,12.79
2018-05-15T04:20:02.441Z,12.89
2018-05-15T04:21:02.681Z,12.79
2018-05-15T04:22:02.928Z,12.86
2018-05-15T04:23:03.168Z,12.78
2018-05-15T04:24:03.408Z,12.89
2018-05-15T04:25:03.650Z,12.87
2018-05-15T04:26:03.890Z,12.97
2018-05-15T04:27:04.133Z,13.03
2018-05-15T04:28:04.446Z,13.07
2018-05-15T04:29:04.612Z,13.12
2018-05-15T04:30:04.856Z,13.23
2018-05-15T04:31:05.099Z,13.25
2018-05-15T04:32:05.340Z,13.32
2018-05-15T04:33:05.582Z,13.33
2018-05-15T04:34:05.823Z,13.41
2018-05-15T04:35:06.119Z,13.42
2018-05-15T04:36:06.307Z,13.38
2018-05-15T04:37:06.548Z,13.52
2018-05-15T04:38:06.791Z,13.39
2018-05-15T04:39:07.029Z,13.39
2018-05-15T04:40:07.271Z,13.39
2018-05-15T04:41:07.512Z,13.46
2018-05-15T04:42:07.753Z,13.44
2018-05-15T04:43:07.993Z,13.45
2018-05-15T04:44:08.235Z,13.48
2018-05-15T04:45:08.474Z,13.46
2018-05-15T04:46:08.717Z,13.49
2018-05-15T04:47:08.956Z,13.64
2018-05-15T04:48:09.197Z,13.73
2018-05-15T04:49:09.438Z,13.63
2018-05-15T04:50:09.678Z,13.70
2018-05-15T04:51:09.929Z,13.73
2018-05-15T04:52:10.163Z,13.70
2018-05-15T04:53:10.406Z,13.67
2018-05-15T04:54:10.647Z,13.82
2018-05-15T04:55:10.888Z,13.81
2018-05-15T04:56:11.132Z,13.85
2018-05-15T04:57:11.369Z,13.82
2018-05-15T04:58:11.610Z,13.91
2018-05-15T04:59:11.854Z,14.04
2018-05-15T05:00:12.097Z,13.96
2018-05-15T05:01:12.335Z,14.02
2018-05-15T05:02:12.578Z,14.03
2018-05-15T05:03:12.819Z,14.10
2018-05-15T05:04:13.059Z,14.15
2018-05-15T05:05:13.300Z,14.17
2018-05-15T05:06:13.544Z,14.18
2018-05-15T05:07:13.785Z,14.15
2018-05-15T05:08:14.027Z,14.25
2018-05-15T05:09:14.268Z,14.14
2018-05-15T05:10:14.510Z,14.28
2018-05-15T05:11:14.752Z,14.28
2018-05-15T05:12:14.994Z,14.42
2018-05-15T05:13:15.235Z,14.39
2018-05-15T05:14:15.475Z,14.40
2018-05-15T05:15:15.721Z,14.58
2018-05-15T05:16:15.957Z,14.60
2018-05-15T05:17:16.202Z,14.69
2018-05-15T05:18:16.445Z,14.64
2018-05-15T05:19:16.686Z,14.58
2018-05-15T05:20:16.930Z,14.62
2018-05-15T05:21:17.168Z,14.64
2018-05-15T05:22:17.411Z,14.65
2018-05-15T05:23:17.656Z,14.69
2018-05-15T05:24:17.896Z,14.65
2018-05-15T05:25:18.141Z,14.68
2018-05-15T05:26:18.388Z,14.81
2018-05-15T05:27:18.630Z,14.84
2018-05-15T05:28:18.879Z,14.96
2018-05-15T05:29:19.112Z,14.89
2018-05-15T05:30:19.354Z,14.88
2018-05-15T05:31:19.599Z,14.77
2018-05-15T05:32:19.841Z,14.73
2018-05-15T05:33:20.116Z,14.62
2018-05-15T05:34:20.326Z,14.69
2018-05-15T05:35:20.570Z,14.61
2018-05-15T05:36:20.815Z,14.69
2018-05-15T05:37:21.054Z,14.64
2018-05-15T05:38:21.295Z,14.47
2018-05-15T05:39:21.537Z,14.46
2018-05-15T05:40:21.779Z,14.46
2018-05-15T05:41:22.025Z,14.52
2018-05-15T05:42:22.267Z,14.52
2018-05-15T05:43:22.510Z,14.43
2018-05-15T05:44:22.745Z,14.40
2018-05-15T05:45:22.987Z,14.43
2018-05-15T05:46:23.271Z,14.39
2018-05-15T05:47:23.489Z,14.43
2018-05-15T05:48:23.731Z,14.54
2018-05-15T05:49:23.975Z,14.46
2018-05-15T05:50:24.215Z,14.61
2018-05-15T05:51:24.460Z,14.70
2018-05-15T05:52:24.704Z,14.65
2018-05-15T05:53:24.948Z,14.80
2018-05-15T05:54:25.202Z,14.75
2018-05-15T05:55:25.439Z,14.81
2018-05-15T05:56:25.684Z,14.73
2018-05-15T05:57:25.927Z,14.72
2018-05-15T05:58:26.172Z,14.72
2018-05-15T05:59:26.415Z,14.73
2018-05-15T06:00:26.655Z,14.73
2018-05-15T06:01:26.896Z,14.68
2018-05-15T06:02:27.139Z,14.78
2018-05-15T06:03:27.382Z,14.77
2018-05-15T06:04:27.625Z,14.92
2018-05-15T06:05:27.871Z,14.84
2018-05-15T06:06:28.119Z,14.99
2018-05-15T06:07:28.408Z,15.01
2018-05-15T06:08:28.601Z,14.98
2018-05-15T06:09:28.843Z,15.02
2018-05-15T06:10:29.087Z,15.16
2018-05-15T06:11:29.329Z,15.10
2018-05-15T06:12:29.576Z,15.11
2018-05-15T06:13:29.812Z,15.17
2018-05-15T06:14:30.067Z,15.32
2018-05-15T06:15:30.304Z,15.29
2018-05-15T06:16:30.541Z,15.32
2018-05-15T06:17:30.787Z,15.29
2018-05-15T06:18:31.031Z,15.31
2018-05-15T06:19:31.274Z,15.41
2018-05-15T06:20:31.516Z,15.28
2018-05-15T06:21:31.761Z,15.39
2018-05-15T06:22:32.006Z,15.53
2018-05-15T06:23:32.249Z,15.60
2018-05-15T06:24:32.490Z,15.71
2018-05-15T06:25:32.734Z,15.78
2018-05-15T06:26:32.978Z,15.87
2018-05-15T06:27:33.235Z,15.71
2018-05-15T06:28:33.463Z,15.68
2018-05-15T06:29:33.706Z,15.83
2018-05-15T06:30:33.949Z,15.90
2018-05-15T06:31:34.196Z,15.84
2018-05-15T06:32:34.436Z,15.83
2018-05-15T06:33:34.678Z,16.07
2018-05-15T06:34:34.921Z,16.05
2018-05-15T06:35:35.169Z,16.21
2018-05-15T06:36:35.412Z,16.23
2018-05-15T06:37:35.658Z,16.27
2018-05-15T06:38:35.921Z,16.41
2018-05-15T06:39:36.147Z,16.35
2018-05-15T06:40:36.393Z,16.60
2018-05-15T06:41:36.637Z,16.89
2018-05-15T06:42:36.883Z,17.06
2018-05-15T06:43:37.126Z,17.26
2018-05-15T06:44:37.377Z,17.18
2018-05-15T06:45:37.615Z,17.31
2018-05-15T06:46:37.860Z,17.55
2018-05-15T06:47:38.103Z,17.66
2018-05-15T06:48:38.348Z,17.70
2018-05-15T06:49:38.591Z,17.74
2018-05-15T06:50:38.834Z,17.86
2018-05-15T06:51:39.081Z,17.82
2018-05-15T06:52:39.327Z,18.03
2018-05-15T06:53:39.568Z,17.81
2018-05-15T06:54:39.816Z,17.87
2018-05-15T06:55:40.062Z,17.89
2018-05-15T06:56:40.309Z,17.87
2018-05-15T06:57:40.554Z,17.82
2018-05-15T06:58:40.798Z,17.89
2018-05-15T06:59:41.043Z,17.89
2018-05-15T07:00:41.287Z,17.79
2018-05-15T07:01:41.565Z,18.15
2018-05-15T07:02:41.777Z,18.50
2018-05-15T07:03:42.020Z,19.00
2018-05-15T07:04:42.269Z,19.41
2018-05-15T07:05:42.515Z,19.10
2018-05-15T07:06:42.760Z,19.22
2018-05-15T07:07:43.064Z,19.06
2018-05-15T07:08:43.250Z,19.41
2018-05-15T07:09:43.499Z,19.56
2018-05-15T07:10:43.743Z,19.86
2018-05-15T07:11:43.994Z,19.96
2018-05-15T07:12:44.235Z,19.77
2018-05-15T07:13:44.480Z,19.62
2018-05-15T07:14:44.730Z,19.94
2018-05-15T07:15:44.977Z,19.86
2018-05-15T07:16:45.222Z,20.02
2018-05-15T07:17:45.467Z,20.28
2018-05-15T07:18:45.712Z,20.43
2018-05-15T07:19:45.958Z,20.66
2018-05-15T07:20:46.209Z,20.64
2018-05-15T07:21:46.454Z,20.39
2018-05-15T07:22:46.698Z,20.69
2018-05-15T07:23:46.947Z,20.85
2018-05-15T07:24:47.193Z,21.09
2018-05-15T07:25:47.439Z,21.44
2018-05-15T07:26:47.686Z,21.79
2018-05-15T07:27:47.936Z,21.94
2018-05-15T07:28:48.180Z,22.21
2018-05-15T07:29:48.428Z,22.22
2018-05-15T07:30:48.675Z,21.99
2018-05-15T07:31:48.924Z,22.06
2018-05-15T07:32:49.170Z,22.03
2018-05-15T07:33:49.417Z,22.20
2018-05-15T07:34:49.665Z,22.46
2018-05-15T07:35:49.911Z,22.43
2018-05-15T07:36:50.157Z,22.31
2018-05-15T07:37:50.409Z,21.82
2018-05-15T07:38:50.656Z,21.62
2018-05-15T07:39:50.903Z,21.46
2018-05-15T07:40:51.154Z,21.17
2018-05-15T07:41:51.406Z,20.85
2018-05-15T07:42:51.651Z,21.06
2018-05-15T07:43:51.901Z,21.04
2018-05-15T07:44:52.151Z,20.89
2018-05-15T07:45:52.400Z,20.95
2018-05-15T07:46:52.646Z,21.50
2018-05-15T07:47:52.896Z,22.15
2018-05-15T07:48:53.143Z,22.42
2018-05-15T07:49:53.391Z,22.33
2018-05-15T07:50:53.638Z,22.51
2018-05-15T07:51:53.886Z,21.80
2018-05-15T07:52:54.137Z,21.14
2018-05-15T07:53:54.386Z,20.79
2018-05-15T07:54:54.634Z,20.73
2018-05-15T07:55:54.885Z,20.64
2018-05-15T07:56:55.133Z,20.98
2018-05-15T07:57:55.380Z,20.91
2018-05-15T07:58:55.628Z,21.03
2018-05-15T07:59:55.878Z,21.98
2018-05-15T08:00:56.128Z,21.86
2018-05-15T08:01:56.375Z,21.59
2018-05-15T08:02:56.623Z,20.99
2018-05-15T08:03:56.872Z,20.41
2018-05-15T08:04:57.121Z,20.11
2018-05-15T08:05:57.369Z,20.16
2018-05-15T08:06:57.618Z,20.36
2018-05-15T08:07:57.864Z,20.95
2018-05-15T08:08:58.116Z,21.86
2018-05-15T08:09:58.363Z,22.49
2018-05-15T08:10:58.649Z,22.97
2018-05-15T08:11:58.857Z,23.46
2018-05-15T08:12:59.109Z,23.95
2018-05-15T08:13:59.357Z,23.46
2018-05-15T08:14:59.604Z,24.13
2018-05-15T08:15:59.853Z,24.28
2018-05-15T08:17:00.103Z,24.30
2018-05-15T08:18:00.352Z,24.20
2018-05-15T08:19:00.602Z,24.46
2018-05-15T08:20:00.851Z,25.02
2018-05-15T08:21:01.104Z,24.57
2018-05-15T08:22:01.353Z,24.84
2018-05-15T08:23:01.611Z,25.15
2018-05-15T08:24:01.858Z,25.24
2018-05-15T08:25:02.115Z,24.81
2018-05-15T08:26:02.359Z,24.27
2018-05-15T08:27:02.612Z,24.25
2018-05-15T08:28:02.861Z,23.27
2018-05-15T08:29:03.116Z,23.53
2018-05-15T08:30:03.364Z,24.39
2018-05-15T08:31:03.613Z,24.93
2018-05-15T08:32:03.863Z,24.83
2018-05-15T08:33:04.112Z,24.93
2018-05-15T08:34:04.365Z,24.30
2018-05-15T08:35:04.617Z,24.37
2018-05-15T08:36:04.869Z,24.35
2018-05-15T08:37:05.121Z,23.80
2018-05-15T08:38:05.374Z,23.12
2018-05-15T08:39:05.623Z,23.48
2018-05-15T08:40:05.880Z,23.13
2018-05-15T08:41:06.133Z,23.40
2018-05-15T08:42:06.383Z,23.28
2018-05-15T08:43:06.638Z,22.92
2018-05-15T08:44:06.890Z,23.31
2018-05-15T08:45:07.144Z,23.66
2018-05-15T08:46:07.395Z,22.90
2018-05-15T08:47:07.647Z,23.12
2018-05-15T08:48:07.901Z,23.57
2018-05-15T08:49:08.153Z,23.61
2018-05-15T08:50:08.405Z,23.75
2018-05-15T08:51:08.659Z,23.90
2018-05-15T08:52:08.909Z,24.21
2018-05-15T08:53:09.162Z,23.98
2018-05-15T08:54:09.414Z,24.49
2018-05-15T08:55:09.662Z,24.95
2018-05-15T08:56:09.918Z,24.93
2018-05-15T08:57:10.167Z,24.61
2018-05-15T08:58:10.422Z,24.81
2018-05-15T08:59:10.670Z,24.53
2018-05-15T09:00:10.921Z,24.53
2018-05-15T09:01:11.175Z,23.63
2018-05-15T09:02:11.427Z,23.51
2018-05-15T09:03:11.675Z,23.46
2018-05-15T09:04:11.927Z,23.50
2018-05-15T09:05:12.177Z,24.16
2018-05-15T09:06:12.428Z,23.85
2018-05-15T09:07:12.677Z,23.76
2018-05-15T09:08:12.932Z,23.90
2018-05-15T09:09:13.182Z,24.22
2018-05-15T09:10:13.437Z,24.55
2018-05-15T09:11:13.688Z,23.76
2018-05-15T09:12:13.939Z,24.12
2018-05-15T09:13:14.189Z,24.39
2018-05-15T09:14:14.443Z,25.05
2018-05-15T09:15:14.695Z,25.05
2018-05-15T09:16:14.951Z,24.76
2018-05-15T09:17:15.202Z,24.96
2018-05-15T09:18:15.524Z,25.03
2018-05-15T09:19:15.697Z,25.38
2018-05-15T09:20:15.948Z,25.46
2018-05-15T09:21:16.204Z,24.68
2018-05-15T09:22:16.453Z,24.71
2018-05-15T09:23:16.708Z,24.61
2018-05-15T09:24:16.960Z,25.03
2018-05-15T09:25:17.214Z,25.54
2018-05-15T09:26:17.472Z,25.85
2018-05-15T09:27:17.717Z,26.30
2018-05-15T09:28:17.969Z,26.94
2018-05-15T09:29:18.268Z,27.10
2018-05-15T09:30:18.478Z,27.13
2018-05-15T09:31:18.733Z,27.99
2018-05-15T09:32:18.984Z,27.67
2018-05-15T09:33:19.237Z,27.67
2018-05-15T09:34:19.492Z,28.09
2018-05-15T09:35:19.749Z,28.70
2018-05-15T09:36:20.019Z,28.02
2018-05-15T09:37:20.256Z,26.97
2018-05-15T09:38:20.508Z,25.88
2018-05-15T09:39:20.765Z,25.64
2018-05-15T09:40:21.014Z,26.26
2018-05-15T09:41:21.271Z,25.14
2018-05-15T09:42:21.523Z,25.88
2018-05-15T09:43:21.779Z,26.69
2018-05-15T09:44:22.030Z,27.46
2018-05-15T09:45:22.283Z,27.32
2018-05-15T09:46:22.537Z,26.09
2018-05-15T09:47:22.794Z,24.50
2018-05-15T09:48:23.046Z,24.95
2018-05-15T09:49:23.299Z,25.70
2018-05-15T09:50:23.556Z,26.10
2018-05-15T09:51:23.811Z,26.26
2018-05-15T09:52:24.166Z,25.92
2018-05-15T09:53:24.333Z,24.09
2018-05-15T09:54:24.585Z,23.17
2018-05-15T09:55:24.838Z,24.84
2018-05-15T09:56:25.090Z,25.72
2018-05-15T09:57:25.346Z,25.50
2018-05-15T09:58:25.603Z,24.80
2018-05-15T09:59:25.855Z,24.28
2018-05-15T10:00:26.109Z,22.91
2018-05-15T10:01:26.361Z,22.80
2018-05-15T10:02:26.616Z,22.30
2018-05-15T10:03:26.870Z,21.79
2018-05-15T10:04:27.126Z,21.79
2018-05-15T10:05:27.379Z,21.80
2018-05-15T10:06:27.635Z,21.77
2018-05-15T10:07:27.884Z,21.80
2018-05-15T10:08:28.136Z,22.35
2018-05-15T10:09:28.386Z,23.05
2018-05-15T10:10:28.644Z,23.01
2018-05-15T10:11:28.891Z,23.05
2018-05-15T10:12:29.144Z,22.94
2018-05-15T10:13:29.396Z,22.85
2018-05-15T10:14:29.654Z,23.05
2018-05-15T10:15:29.902Z,22.70
2018-05-15T10:16:30.154Z,23.84
2018-05-15T10:17:30.405Z,25.20
2018-05-15T10:18:30.654Z,26.12
2018-05-15T10:19:30.905Z,25.20
2018-05-15T10:20:31.160Z,25.10
2018-05-15T10:21:31.412Z,24.50
2018-05-15T10:22:31.664Z,23.61
2018-05-15T10:23:31.915Z,22.94
2018-05-15T10:24:32.168Z,22.92
2018-05-15T10:25:32.420Z,23.43
2018-05-15T10:26:32.676Z,23.90
2018-05-15T10:27:32.924Z,23.25
2018-05-15T10:28:33.176Z,22.57
2018-05-15T10:29:33.427Z,22.05
2018-05-15T10:30:33.679Z,21.49
2018-05-15T10:31:33.928Z,20.87
2018-05-15T10:32:34.181Z,20.43
2018-05-15T10:33:34.436Z,20.50
2018-05-15T10:34:34.688Z,20.39
2018-05-15T10:35:34.936Z,20.28
2018-05-15T10:36:35.188Z,20.29
2018-05-15T10:37:35.438Z,20.08
2018-05-15T10:38:35.712Z,19.80
2018-05-15T10:39:35.962Z,19.80
2018-05-15T10:40:36.242Z,19.81
2018-05-15T10:41:36.496Z,19.69
2018-05-15T10:42:36.730Z,19.69
2018-05-15T10:43:37.032Z,19.37
2018-05-15T10:44:37.305Z,18.90
2018-05-15T10:45:37.720Z,18.70
2018-05-15T10:46:38.116Z,18.62
2018-05-15T10:47:38.460Z,18.41
2018-05-15T10:48:38.713Z,18.21
2018-05-15T10:49:38.959Z,18.23
2018-05-15T10:50:39.239Z,18.21
2018-05-15T10:51:39.472Z,18.33
2018-05-15T10:52:39.711Z,18.33
2018-05-15T10:53:39.960Z,18.50
2018-05-15T10:54:40.207Z,18.33
2018-05-15T10:55:40.459Z,18.20
2018-05-15T10:56:40.706Z,17.95
2018-05-15T10:57:40.959Z,17.93
2018-05-15T10:58:41.198Z,17.99
2018-05-15T10:59:41.499Z,18.52
2018-05-15T11:00:41.699Z,18.72
2018-05-15T11:01:41.947Z,18.99
2018-05-15T11:02:42.194Z,18.99
2018-05-15T11:03:42.441Z,19.81
2018-05-15T11:04:42.687Z,21.52
2018-05-15T11:05:42.935Z,22.70
2018-05-15T11:06:43.201Z,23.54
2018-05-15T11:07:43.467Z,23.90
2018-05-15T11:08:43.713Z,24.96
2018-05-15T11:09:43.963Z,24.47
2018-05-15T11:10:44.247Z,24.93
2018-05-15T11:11:44.500Z,25.05
2018-05-15T11:12:44.831Z,25.14
2018-05-15T11:13:44.998Z,25.08
2018-05-15T11:14:45.249Z,25.24
2018-05-15T11:15:45.498Z,24.50
2018-05-15T11:16:45.813Z,25.87
2018-05-15T11:17:46.061Z,23.58
2018-05-15T11:18:46.336Z,22.90
2018-05-15T11:19:46.565Z,24.00
2018-05-15T11:20:46.818Z,23.91
2018-05-15T11:21:47.082Z,23.15
2018-05-15T11:22:47.338Z,23.43
2018-05-15T11:23:47.590Z,22.47
2018-05-15T11:24:47.939Z,22.60
2018-05-15T11:25:48.187Z,22.24
2018-05-15T11:26:48.448Z,21.71
2018-05-15T11:27:48.702Z,21.35
2018-05-15T11:28:48.955Z,21.27
2018-05-15T11:29:49.207Z,21.01
2018-05-15T11:30:49.458Z,21.22
2018-05-15T11:31:49.711Z,21.72
2018-05-15T11:32:49.962Z,22.10
2018-05-15T11:33:50.210Z,22.52
2018-05-15T11:34:50.482Z,22.92
2018-05-15T11:35:50.810Z,21.80
2018-05-15T11:36:50.981Z,21.10
2018-05-15T11:37:51.249Z,21.53
2018-05-15T11:38:51.502Z,21.83
2018-05-15T11:39:51.753Z,21.72
2018-05-15T11:40:52.056Z,21.42
2018-05-15T11:41:52.310Z,21.21
2018-05-15T11:42:52.501Z,21.07
2018-05-15T11:43:52.748Z,21.01
2018-05-15T11:44:52.999Z,21.21
2018-05-15T11:45:53.254Z,21.25
2018-05-15T11:46:53.499Z,21.34
2018-05-15T11:47:54.455Z,21.29
2018-05-15T11:48:54.488Z,21.49
2018-05-15T11:49:54.981Z,21.40
2018-05-15T11:50:55.051Z,21.32
2018-05-15T11:51:55.786Z,21.16
2018-05-15T11:52:55.795Z,21.25
2018-05-15T11:53:55.342Z,20.95
2018-05-15T11:54:55.512Z,21.01
2018-05-15T11:55:55.815Z,20.74
2018-05-15T11:56:56.048Z,20.54
2018-05-15T11:57:56.388Z,20.50
2018-05-15T11:58:56.561Z,20.20
2018-05-15T11:59:56.913Z,20.17
2018-05-15T12:00:57.106Z,19.76
2018-05-15T12:01:57.324Z,19.76
2018-05-15T12:02:57.643Z,19.80
2018-05-15T12:03:57.948Z,19.78
2018-05-15T12:04:58.157Z,19.94
2018-05-15T12:05:58.418Z,19.84
2018-05-15T12:06:58.658Z,19.81
2018-05-15T12:07:58.932Z,19.87
2018-05-15T12:08:59.188Z,19.77
2018-05-15T12:09:59.401Z,19.65
2018-05-15T12:10:59.649Z,19.66
2018-05-15T12:11:59.896Z,19.63
2018-05-15T12:13:00.145Z,19.48
2018-05-15T12:14:00.394Z,19.43
2018-05-15T12:15:00.682Z,19.37
2018-05-15T12:16:00.963Z,19.40
2018-05-15T12:17:01.220Z,19.39
2018-05-15T12:18:01.416Z,19.25
2018-05-15T12:19:01.665Z,19.33
2018-05-15T12:20:01.913Z,19.41
2018-05-15T12:21:02.168Z,19.50
2018-05-15T12:22:02.405Z,19.68
2018-05-15T12:23:02.665Z,19.83
2018-05-15T12:24:02.917Z,19.95
2018-05-15T12:25:03.341Z,20.14
2018-05-15T12:26:03.591Z,20.21
2018-05-15T12:27:03.880Z,20.24
2018-05-15T12:28:04.200Z,20.28
2018-05-15T12:29:04.369Z,20.33
2018-05-15T12:30:04.624Z,20.55
2018-05-15T12:31:04.874Z,20.89
2018-05-15T12:32:05.152Z,21.34
2018-05-15T12:33:05.430Z,23.10
2018-05-15T12:34:05.685Z,24.65
2018-05-15T12:35:05.936Z,25.75
2018-05-15T12:36:06.206Z,27.09
2018-05-15T12:37:06.552Z,27.94
2018-05-15T12:38:06.798Z,27.78
2018-05-15T12:39:07.049Z,26.63
2018-05-15T12:40:07.313Z,25.62
2018-05-15T12:41:07.574Z,24.98
2018-05-15T12:42:07.888Z,24.58
2018-05-15T12:43:08.120Z,24.32
2018-05-15T12:44:08.373Z,23.98
2018-05-15T12:45:08.655Z,23.80
2018-05-15T12:46:08.907Z,23.33
2018-05-15T12:47:09.149Z,22.98
2018-05-15T12:48:09.888Z,22.97
2018-05-15T12:49:09.789Z,22.92
2018-05-15T12:50:09.946Z,22.61
2018-05-15T12:51:10.200Z,22.55
2018-05-15T12:52:10.455Z,22.22
2018-05-15T12:53:10.704Z,22.17
2018-05-15T12:54:11.011Z,21.94
2018-05-15T12:55:11.214Z,21.82
2018-05-15T12:56:11.465Z,21.65